sensor_id;sensor_type;location;lat;lon;timestamp;P1;durP1;ratioP1;P2;durP2;ratioP2
14732;SDS011;7457;50.960;6.830;2023-04-24T00:00:03;1.23;;;1.13;;
14732;SDS011;7457;50.960;6.830;2023-04-24T00:02:37;1.45;;;1.30;;
14732;SDS011;7457;50.960;6.830;2023-04-24T00:05:04;1.70;;;1.60;;
14732;SDS011;7457;50.960;6.830;2023-04-24T00:10:11;1.38;;;1.27;;
14732;SDS011;7457;50.960;6.830;2023-04-24T00:12:37;1.10;;;0.98;;
14732;SDS011;7457;50.960;6.830;2023-04-24T00:15:04;1.55;;;1.20;;
14732;SDS011;7457;50.960;6.830;2023-04-24T00:17:30;1.23;;;1.13;;
14732;SDS011;7457;50.960;6.830;2023-04-24T00:19:56;1.70;;;1.50;;
14732;SDS011;7457;50.960;6.830;2023-04-24T00:22:28;1.42;;;1.20;;
14732;SDS011;7457;50.960;6.830;2023-04-24T00:24:54;1.70;;;1.35;;
14732;SDS011;7457;50.960;6.830;2023-04-24T00:27:20;1.55;;;1.45;;
14732;SDS011;7457;50.960;6.830;2023-04-24T00:29:46;3.75;;;1.60;;
14732;SDS011;7457;50.960;6.830;2023-04-24T00:32:11;1.30;;;1.20;;
14732;SDS011;7457;50.960;6.830;2023-04-24T00:34:37;1.38;;;1.27;;
14732;SDS011;7457;50.960;6.830;2023-04-24T00:37:02;1.45;;;1.35;;
14732;SDS011;7457;50.960;6.830;2023-04-24T00:39:28;2.25;;;1.30;;
14732;SDS011;7457;50.960;6.830;2023-04-24T00:41:54;3.33;;;1.50;;
14732;SDS011;7457;50.960;6.830;2023-04-24T00:44:20;2.13;;;1.50;;
14732;SDS011;7457;50.960;6.830;2023-04-24T00:46:46;1.98;;;1.70;;
14732;SDS011;7457;50.960;6.830;2023-04-24T00:49:16;2.38;;;1.48;;
14732;SDS011;7457;50.960;6.830;2023-04-24T00:51:43;2.25;;;1.67;;
14732;SDS011;7457;50.960;6.830;2023-04-24T00:54:11;2.30;;;1.90;;
14732;SDS011;7457;50.960;6.830;2023-04-24T00:56:37;2.22;;;1.50;;
14732;SDS011;7457;50.960;6.830;2023-04-24T00:59:03;1.70;;;1.60;;
14732;SDS011;7457;50.960;6.830;2023-04-24T01:01:29;1.88;;;1.77;;
14732;SDS011;7457;50.960;6.830;2023-04-24T01:03:55;1.80;;;1.70;;
14732;SDS011;7457;50.960;6.830;2023-04-24T01:06:23;2.17;;;1.60;;
14732;SDS011;7457;50.960;6.830;2023-04-24T01:08:52;2.55;;;2.03;;
14732;SDS011;7457;50.960;6.830;2023-04-24T01:11:18;2.50;;;1.70;;
14732;SDS011;7457;50.960;6.830;2023-04-24T01:13:44;2.22;;;2.03;;
14732;SDS011;7457;50.960;6.830;2023-04-24T01:16:12;2.75;;;1.95;;
14732;SDS011;7457;50.960;6.830;2023-04-24T01:18:38;2.80;;;2.30;;
14732;SDS011;7457;50.960;6.830;2023-04-24T01:21:04;2.30;;;2.10;;
14732;SDS011;7457;50.960;6.830;2023-04-24T01:23:30;2.85;;;2.40;;
14732;SDS011;7457;50.960;6.830;2023-04-24T01:25:56;3.35;;;3.05;;
14732;SDS011;7457;50.960;6.830;2023-04-24T01:28:22;3.50;;;3.05;;
14732;SDS011;7457;50.960;6.830;2023-04-24T01:30:47;4.47;;;2.70;;
14732;SDS011;7457;50.960;6.830;2023-04-24T01:33:13;4.15;;;3.20;;
14732;SDS011;7457;50.960;6.830;2023-04-24T01:35:39;5.07;;;3.78;;
14732;SDS011;7457;50.960;6.830;2023-04-24T01:38:05;6.60;;;3.63;;
14732;SDS011;7457;50.960;6.830;2023-04-24T01:40:31;4.72;;;3.50;;
14732;SDS011;7457;50.960;6.830;2023-04-24T01:42:57;4.65;;;3.80;;
14732;SDS011;7457;50.960;6.830;2023-04-24T01:45:23;4.55;;;4.00;;
14732;SDS011;7457;50.960;6.830;2023-04-24T01:47:50;5.57;;;3.97;;
14732;SDS011;7457;50.960;6.830;2023-04-24T01:50:15;8.35;;;4.70;;
14732;SDS011;7457;50.960;6.830;2023-04-24T01:52:42;6.82;;;5.20;;
14732;SDS011;7457;50.960;6.830;2023-04-24T01:55:07;5.28;;;4.75;;
14732;SDS011;7457;50.960;6.830;2023-04-24T01:57:33;7.43;;;4.72;;
14732;SDS011;7457;50.960;6.830;2023-04-24T02:00:00;7.95;;;4.75;;
14732;SDS011;7457;50.960;6.830;2023-04-24T02:02:26;9.57;;;5.53;;
14732;SDS011;7457;50.960;6.830;2023-04-24T02:04:54;5.55;;;4.90;;
14732;SDS011;7457;50.960;6.830;2023-04-24T02:07:21;5.90;;;5.20;;
14732;SDS011;7457;50.960;6.830;2023-04-24T02:09:47;7.32;;;5.68;;
14732;SDS011;7457;50.960;6.830;2023-04-24T02:12:12;9.40;;;6.40;;
14732;SDS011;7457;50.960;6.830;2023-04-24T02:14:38;7.45;;;6.50;;
14732;SDS011;7457;50.960;6.830;2023-04-24T02:17:04;10.57;;;5.97;;
14732;SDS011;7457;50.960;6.830;2023-04-24T02:19:30;8.35;;;6.15;;
14732;SDS011;7457;50.960;6.830;2023-04-24T02:21:56;7.15;;;6.25;;
14732;SDS011;7457;50.960;6.830;2023-04-24T02:24:21;6.97;;;5.57;;
14732;SDS011;7457;50.960;6.830;2023-04-24T02:26:47;6.90;;;6.18;;
14732;SDS011;7457;50.960;6.830;2023-04-24T02:29:13;7.07;;;5.75;;
14732;SDS011;7457;50.960;6.830;2023-04-24T02:31:38;7.00;;;6.28;;
14732;SDS011;7457;50.960;6.830;2023-04-24T02:34:04;7.13;;;5.75;;
14732;SDS011;7457;50.960;6.830;2023-04-24T02:36:29;8.23;;;6.22;;
14732;SDS011;7457;50.960;6.830;2023-04-24T02:38:55;7.95;;;5.60;;
14732;SDS011;7457;50.960;6.830;2023-04-24T02:41:21;6.40;;;5.80;;
14732;SDS011;7457;50.960;6.830;2023-04-24T02:43:47;7.95;;;5.82;;
14732;SDS011;7457;50.960;6.830;2023-04-24T02:46:12;7.50;;;5.63;;
14732;SDS011;7457;50.960;6.830;2023-04-24T02:48:38;7.63;;;6.07;;
14732;SDS011;7457;50.960;6.830;2023-04-24T02:51:03;9.27;;;6.00;;
14732;SDS011;7457;50.960;6.830;2023-04-24T02:53:29;8.07;;;6.13;;
14732;SDS011;7457;50.960;6.830;2023-04-24T02:55:55;9.05;;;6.45;;
14732;SDS011;7457;50.960;6.830;2023-04-24T02:58:21;8.50;;;6.68;;
14732;SDS011;7457;50.960;6.830;2023-04-24T03:00:47;10.18;;;6.72;;
14732;SDS011;7457;50.960;6.830;2023-04-24T03:03:13;9.48;;;6.75;;
14732;SDS011;7457;50.960;6.830;2023-04-24T03:05:40;8.25;;;6.82;;
14732;SDS011;7457;50.960;6.830;2023-04-24T03:08:05;10.68;;;7.25;;
14732;SDS011;7457;50.960;6.830;2023-04-24T03:10:31;8.57;;;7.13;;
14732;SDS011;7457;50.960;6.830;2023-04-24T03:12:57;8.23;;;6.57;;
14732;SDS011;7457;50.960;6.830;2023-04-24T03:15:22;8.95;;;6.75;;
14732;SDS011;7457;50.960;6.830;2023-04-24T03:17:48;9.88;;;6.75;;
14732;SDS011;7457;50.960;6.830;2023-04-24T03:20:14;8.48;;;7.30;;
14732;SDS011;7457;50.960;6.830;2023-04-24T03:22:39;8.65;;;7.75;;
14732;SDS011;7457;50.960;6.830;2023-04-24T03:25:05;9.98;;;7.85;;
14732;SDS011;7457;50.960;6.830;2023-04-24T03:27:33;9.80;;;7.13;;
14732;SDS011;7457;50.960;6.830;2023-04-24T03:29:58;11.52;;;8.43;;
14732;SDS011;7457;50.960;6.830;2023-04-24T03:32:25;8.27;;;7.43;;
14732;SDS011;7457;50.960;6.830;2023-04-24T03:34:51;7.88;;;6.95;;
14732;SDS011;7457;50.960;6.830;2023-04-24T03:37:17;11.02;;;7.57;;
14732;SDS011;7457;50.960;6.830;2023-04-24T03:39:43;8.98;;;7.93;;
14732;SDS011;7457;50.960;6.830;2023-04-24T03:42:09;8.90;;;7.00;;
14732;SDS011;7457;50.960;6.830;2023-04-24T03:44:35;9.10;;;7.35;;
14732;SDS011;7457;50.960;6.830;2023-04-24T03:47:01;9.65;;;7.00;;
14732;SDS011;7457;50.960;6.830;2023-04-24T03:49:26;8.25;;;7.38;;
14732;SDS011;7457;50.960;6.830;2023-04-24T03:51:52;7.53;;;6.72;;
14732;SDS011;7457;50.960;6.830;2023-04-24T03:54:18;9.13;;;6.93;;
14732;SDS011;7457;50.960;6.830;2023-04-24T03:56:44;10.70;;;6.85;;
14732;SDS011;7457;50.960;6.830;2023-04-24T03:59:10;8.40;;;6.95;;
14732;SDS011;7457;50.960;6.830;2023-04-24T04:01:36;8.63;;;7.22;;
14732;SDS011;7457;50.960;6.830;2023-04-24T04:04:02;8.75;;;7.30;;
14732;SDS011;7457;50.960;6.830;2023-04-24T04:06:31;12.40;;;6.75;;
14732;SDS011;7457;50.960;6.830;2023-04-24T04:08:57;9.13;;;6.72;;
14732;SDS011;7457;50.960;6.830;2023-04-24T04:11:24;9.38;;;6.78;;
14732;SDS011;7457;50.960;6.830;2023-04-24T04:13:50;8.02;;;6.50;;
14732;SDS011;7457;50.960;6.830;2023-04-24T04:16:15;8.90;;;6.47;;
14732;SDS011;7457;50.960;6.830;2023-04-24T04:18:44;9.07;;;6.72;;
14732;SDS011;7457;50.960;6.830;2023-04-24T04:21:10;7.60;;;6.90;;
14732;SDS011;7457;50.960;6.830;2023-04-24T04:23:36;9.40;;;6.93;;
14732;SDS011;7457;50.960;6.830;2023-04-24T04:26:02;8.82;;;6.82;;
14732;SDS011;7457;50.960;6.830;2023-04-24T04:28:29;8.15;;;6.30;;
14732;SDS011;7457;50.960;6.830;2023-04-24T04:30:56;8.75;;;6.40;;
14732;SDS011;7457;50.960;6.830;2023-04-24T04:33:24;8.30;;;6.30;;
14732;SDS011;7457;50.960;6.830;2023-04-24T04:35:50;8.80;;;6.35;;
14732;SDS011;7457;50.960;6.830;2023-04-24T04:38:21;7.70;;;6.55;;
14732;SDS011;7457;50.960;6.830;2023-04-24T04:40:47;7.60;;;5.90;;
14732;SDS011;7457;50.960;6.830;2023-04-24T04:43:13;9.65;;;5.95;;
14732;SDS011;7457;50.960;6.830;2023-04-24T04:45:40;8.38;;;6.07;;
14732;SDS011;7457;50.960;6.830;2023-04-24T04:48:07;8.32;;;5.93;;
14732;SDS011;7457;50.960;6.830;2023-04-24T04:50:34;8.63;;;6.30;;
14732;SDS011;7457;50.960;6.830;2023-04-24T04:53:00;6.63;;;5.50;;
14732;SDS011;7457;50.960;6.830;2023-04-24T04:55:26;8.52;;;5.38;;
14732;SDS011;7457;50.960;6.830;2023-04-24T04:57:52;6.43;;;4.95;;
14732;SDS011;7457;50.960;6.830;2023-04-24T05:00:17;7.65;;;5.53;;
14732;SDS011;7457;50.960;6.830;2023-04-24T05:02:44;7.85;;;6.07;;
14732;SDS011;7457;50.960;6.830;2023-04-24T05:05:09;6.22;;;5.63;;
14732;SDS011;7457;50.960;6.830;2023-04-24T05:07:35;7.55;;;5.53;;
14732;SDS011;7457;50.960;6.830;2023-04-24T05:10:01;7.22;;;5.43;;
14732;SDS011;7457;50.960;6.830;2023-04-24T05:12:27;6.72;;;5.50;;
14732;SDS011;7457;50.960;6.830;2023-04-24T05:14:52;5.38;;;4.88;;
14732;SDS011;7457;50.960;6.830;2023-04-24T05:17:18;6.50;;;5.28;;
14732;SDS011;7457;50.960;6.830;2023-04-24T05:19:44;5.75;;;5.20;;
14732;SDS011;7457;50.960;6.830;2023-04-24T05:22:10;7.07;;;5.70;;
14732;SDS011;7457;50.960;6.830;2023-04-24T05:24:36;8.18;;;5.38;;
14732;SDS011;7457;50.960;6.830;2023-04-24T05:27:02;7.13;;;5.63;;
14732;SDS011;7457;50.960;6.830;2023-04-24T05:29:29;6.03;;;5.40;;
14732;SDS011;7457;50.960;6.830;2023-04-24T05:31:58;5.70;;;5.13;;
14732;SDS011;7457;50.960;6.830;2023-04-24T05:34:25;7.78;;;5.70;;
14732;SDS011;7457;50.960;6.830;2023-04-24T05:36:51;7.05;;;6.13;;
14732;SDS011;7457;50.960;6.830;2023-04-24T05:39:17;7.00;;;6.13;;
14732;SDS011;7457;50.960;6.830;2023-04-24T05:41:43;7.57;;;6.25;;
14732;SDS011;7457;50.960;6.830;2023-04-24T05:44:08;7.22;;;6.18;;
14732;SDS011;7457;50.960;6.830;2023-04-24T05:46:34;8.68;;;5.95;;
14732;SDS011;7457;50.960;6.830;2023-04-24T05:49:00;6.57;;;5.63;;
14732;SDS011;7457;50.960;6.830;2023-04-24T05:51:25;7.32;;;6.05;;
14732;SDS011;7457;50.960;6.830;2023-04-24T05:53:51;7.57;;;5.10;;
14732;SDS011;7457;50.960;6.830;2023-04-24T05:56:17;5.20;;;4.70;;
14732;SDS011;7457;50.960;6.830;2023-04-24T05:58:43;5.88;;;5.03;;
14732;SDS011;7457;50.960;6.830;2023-04-24T06:01:10;7.60;;;4.43;;
14732;SDS011;7457;50.960;6.830;2023-04-24T06:03:35;4.90;;;3.90;;
14732;SDS011;7457;50.960;6.830;2023-04-24T06:06:01;4.97;;;3.97;;
14732;SDS011;7457;50.960;6.830;2023-04-24T06:08:26;3.90;;;3.50;;
14732;SDS011;7457;50.960;6.830;2023-04-24T06:10:52;3.83;;;3.42;;
14732;SDS011;7457;50.960;6.830;2023-04-24T06:13:18;3.88;;;3.28;;
14732;SDS011;7457;50.960;6.830;2023-04-24T06:15:43;4.65;;;3.40;;
14732;SDS011;7457;50.960;6.830;2023-04-24T06:18:09;6.30;;;3.85;;
14732;SDS011;7457;50.960;6.830;2023-04-24T06:20:38;6.55;;;3.58;;
14732;SDS011;7457;50.960;6.830;2023-04-24T06:23:03;3.28;;;2.78;;
14732;SDS011;7457;50.960;6.830;2023-04-24T06:25:29;2.72;;;2.53;;
14732;SDS011;7457;50.960;6.830;2023-04-24T06:27:55;2.65;;;2.40;;
14732;SDS011;7457;50.960;6.830;2023-04-24T06:30:21;2.42;;;2.20;;
14732;SDS011;7457;50.960;6.830;2023-04-24T06:32:47;2.90;;;2.50;;
14732;SDS011;7457;50.960;6.830;2023-04-24T06:35:13;3.20;;;2.30;;
14732;SDS011;7457;50.960;6.830;2023-04-24T06:37:39;2.70;;;2.50;;
14732;SDS011;7457;50.960;6.830;2023-04-24T06:40:06;2.83;;;2.40;;
14732;SDS011;7457;50.960;6.830;2023-04-24T06:42:32;3.60;;;2.40;;
14732;SDS011;7457;50.960;6.830;2023-04-24T06:44:59;3.85;;;2.30;;
14732;SDS011;7457;50.960;6.830;2023-04-24T06:47:26;2.92;;;2.70;;
14732;SDS011;7457;50.960;6.830;2023-04-24T06:49:51;4.10;;;2.58;;
14732;SDS011;7457;50.960;6.830;2023-04-24T06:52:18;2.97;;;2.55;;
14732;SDS011;7457;50.960;6.830;2023-04-24T06:54:45;3.28;;;2.58;;
14732;SDS011;7457;50.960;6.830;2023-04-24T06:57:11;2.90;;;2.70;;
14732;SDS011;7457;50.960;6.830;2023-04-24T06:59:37;3.33;;;3.03;;
14732;SDS011;7457;50.960;6.830;2023-04-24T07:02:02;5.60;;;3.67;;
14732;SDS011;7457;50.960;6.830;2023-04-24T07:04:28;3.67;;;3.35;;
14732;SDS011;7457;50.960;6.830;2023-04-24T07:06:55;5.28;;;3.72;;
14732;SDS011;7457;50.960;6.830;2023-04-24T07:09:22;4.40;;;4.00;;
14732;SDS011;7457;50.960;6.830;2023-04-24T07:11:50;5.13;;;3.65;;
14732;SDS011;7457;50.960;6.830;2023-04-24T07:14:16;5.50;;;3.60;;
14732;SDS011;7457;50.960;6.830;2023-04-24T07:16:42;4.68;;;3.20;;
14732;SDS011;7457;50.960;6.830;2023-04-24T07:19:08;4.05;;;3.63;;
14732;SDS011;7457;50.960;6.830;2023-04-24T07:21:34;3.97;;;3.63;;
14732;SDS011;7457;50.960;6.830;2023-04-24T07:24:00;5.50;;;4.25;;
14732;SDS011;7457;50.960;6.830;2023-04-24T07:26:26;4.50;;;3.78;;
14732;SDS011;7457;50.960;6.830;2023-04-24T07:28:53;3.03;;;2.83;;
14732;SDS011;7457;50.960;6.830;2023-04-24T07:31:19;3.85;;;2.72;;
14732;SDS011;7457;50.960;6.830;2023-04-24T07:33:46;3.67;;;3.00;;
14732;SDS011;7457;50.960;6.830;2023-04-24T07:36:11;2.58;;;2.38;;
14732;SDS011;7457;50.960;6.830;2023-04-24T07:38:41;2.78;;;2.50;;
14732;SDS011;7457;50.960;6.830;2023-04-24T07:41:07;3.97;;;2.65;;
14732;SDS011;7457;50.960;6.830;2023-04-24T07:43:33;2.33;;;1.98;;
14732;SDS011;7457;50.960;6.830;2023-04-24T07:45:59;2.17;;;1.95;;
14732;SDS011;7457;50.960;6.830;2023-04-24T07:48:25;2.95;;;2.17;;
14732;SDS011;7457;50.960;6.830;2023-04-24T07:50:51;3.13;;;2.83;;
14732;SDS011;7457;50.960;6.830;2023-04-24T07:53:17;3.75;;;2.30;;
14732;SDS011;7457;50.960;6.830;2023-04-24T07:55:43;1.98;;;1.83;;
14732;SDS011;7457;50.960;6.830;2023-04-24T07:58:09;2.67;;;2.08;;
14732;SDS011;7457;50.960;6.830;2023-04-24T08:00:34;3.30;;;2.00;;
14732;SDS011;7457;50.960;6.830;2023-04-24T08:03:00;2.28;;;2.08;;
14732;SDS011;7457;50.960;6.830;2023-04-24T08:05:26;2.15;;;1.95;;
14732;SDS011;7457;50.960;6.830;2023-04-24T08:07:53;5.18;;;3.95;;
14732;SDS011;7457;50.960;6.830;2023-04-24T08:10:20;3.25;;;2.97;;
14732;SDS011;7457;50.960;6.830;2023-04-24T08:12:49;3.28;;;2.80;;
14732;SDS011;7457;50.960;6.830;2023-04-24T08:15:15;4.50;;;4.10;;
14732;SDS011;7457;50.960;6.830;2023-04-24T08:17:40;4.22;;;3.80;;
14732;SDS011;7457;50.960;6.830;2023-04-24T08:20:08;5.45;;;4.00;;
14732;SDS011;7457;50.960;6.830;2023-04-24T08:22:38;5.65;;;4.95;;
14732;SDS011;7457;50.960;6.830;2023-04-24T08:25:08;7.07;;;4.53;;
14732;SDS011;7457;50.960;6.830;2023-04-24T08:27:35;9.45;;;6.97;;
14732;SDS011;7457;50.960;6.830;2023-04-24T08:30:02;6.47;;;4.68;;
14732;SDS011;7457;50.960;6.830;2023-04-24T08:32:28;6.50;;;4.10;;
14732;SDS011;7457;50.960;6.830;2023-04-24T08:34:54;6.60;;;5.60;;
14732;SDS011;7457;50.960;6.830;2023-04-24T08:37:21;5.75;;;4.07;;
14732;SDS011;7457;50.960;6.830;2023-04-24T08:39:47;3.40;;;3.10;;
14732;SDS011;7457;50.960;6.830;2023-04-24T08:42:14;3.78;;;2.88;;
14732;SDS011;7457;50.960;6.830;2023-04-24T08:44:42;2.90;;;2.70;;
14732;SDS011;7457;50.960;6.830;2023-04-24T08:47:08;5.13;;;2.90;;
14732;SDS011;7457;50.960;6.830;2023-04-24T08:49:34;6.30;;;3.28;;
14732;SDS011;7457;50.960;6.830;2023-04-24T08:52:02;3.92;;;3.55;;
14732;SDS011;7457;50.960;6.830;2023-04-24T08:54:29;4.93;;;3.97;;
14732;SDS011;7457;50.960;6.830;2023-04-24T08:56:59;5.15;;;3.75;;
14732;SDS011;7457;50.960;6.830;2023-04-24T08:59:26;5.75;;;4.40;;
14732;SDS011;7457;50.960;6.830;2023-04-24T09:01:52;4.80;;;4.18;;
14732;SDS011;7457;50.960;6.830;2023-04-24T09:04:19;5.35;;;4.53;;
14732;SDS011;7457;50.960;6.830;2023-04-24T09:06:48;7.05;;;5.22;;
14732;SDS011;7457;50.960;6.830;2023-04-24T09:09:14;7.35;;;5.57;;
14732;SDS011;7457;50.960;6.830;2023-04-24T09:11:43;6.32;;;5.63;;
14732;SDS011;7457;50.960;6.830;2023-04-24T09:14:09;7.32;;;4.90;;
14732;SDS011;7457;50.960;6.830;2023-04-24T09:16:36;7.30;;;6.05;;
14732;SDS011;7457;50.960;6.830;2023-04-24T09:19:01;8.18;;;5.97;;
14732;SDS011;7457;50.960;6.830;2023-04-24T09:21:31;8.48;;;5.07;;
14732;SDS011;7457;50.960;6.830;2023-04-24T09:23:59;9.43;;;6.45;;
14732;SDS011;7457;50.960;6.830;2023-04-24T09:26:30;9.52;;;6.03;;
14732;SDS011;7457;50.960;6.830;2023-04-24T09:28:57;8.55;;;6.60;;
14732;SDS011;7457;50.960;6.830;2023-04-24T09:31:24;8.02;;;6.40;;
14732;SDS011;7457;50.960;6.830;2023-04-24T09:34:03;9.23;;;7.00;;
14732;SDS011;7457;50.960;6.830;2023-04-24T09:36:33;14.32;;;7.22;;
14732;SDS011;7457;50.960;6.830;2023-04-24T09:39:04;9.65;;;6.90;;
14732;SDS011;7457;50.960;6.830;2023-04-24T09:41:31;10.40;;;7.93;;
14732;SDS011;7457;50.960;6.830;2023-04-24T09:44:09;9.15;;;7.15;;
14732;SDS011;7457;50.960;6.830;2023-04-24T09:46:40;11.18;;;7.63;;
14732;SDS011;7457;50.960;6.830;2023-04-24T09:49:11;10.13;;;7.75;;
14732;SDS011;7457;50.960;6.830;2023-04-24T09:51:39;13.13;;;9.20;;
14732;SDS011;7457;50.960;6.830;2023-04-24T09:54:11;19.38;;;11.25;;
14732;SDS011;7457;50.960;6.830;2023-04-24T09:56:42;13.05;;;9.15;;
14732;SDS011;7457;50.960;6.830;2023-04-24T09:59:10;10.13;;;6.90;;
14732;SDS011;7457;50.960;6.830;2023-04-24T10:01:35;9.35;;;6.85;;
14732;SDS011;7457;50.960;6.830;2023-04-24T10:04:03;9.27;;;6.30;;
14732;SDS011;7457;50.960;6.830;2023-04-24T10:06:36;7.43;;;5.68;;
14732;SDS011;7457;50.960;6.830;2023-04-24T10:09:02;8.27;;;5.60;;
14732;SDS011;7457;50.960;6.830;2023-04-24T10:11:28;6.32;;;4.70;;
14732;SDS011;7457;50.960;6.830;2023-04-24T10:13:55;6.13;;;5.35;;
14732;SDS011;7457;50.960;6.830;2023-04-24T10:16:22;9.25;;;4.70;;
14732;SDS011;7457;50.960;6.830;2023-04-24T10:18:51;7.57;;;5.07;;
14732;SDS011;7457;50.960;6.830;2023-04-24T10:21:18;8.82;;;4.85;;
14732;SDS011;7457;50.960;6.830;2023-04-24T10:23:43;9.45;;;4.75;;
14732;SDS011;7457;50.960;6.830;2023-04-24T10:26:14;8.65;;;4.38;;
14732;SDS011;7457;50.960;6.830;2023-04-24T10:28:45;5.97;;;4.65;;
14732;SDS011;7457;50.960;6.830;2023-04-24T10:31:12;7.95;;;4.03;;
14732;SDS011;7457;50.960;6.830;2023-04-24T10:33:42;6.15;;;3.92;;
14732;SDS011;7457;50.960;6.830;2023-04-24T10:36:11;6.43;;;3.90;;
14732;SDS011;7457;50.960;6.830;2023-04-24T10:38:39;4.05;;;3.53;;
14732;SDS011;7457;50.960;6.830;2023-04-24T10:41:10;4.90;;;3.30;;
14732;SDS011;7457;50.960;6.830;2023-04-24T10:43:44;5.85;;;4.20;;
14732;SDS011;7457;50.960;6.830;2023-04-24T10:46:10;5.22;;;4.32;;
14732;SDS011;7457;50.960;6.830;2023-04-24T10:48:41;7.90;;;4.03;;
14732;SDS011;7457;50.960;6.830;2023-04-24T10:51:11;6.85;;;3.80;;
14732;SDS011;7457;50.960;6.830;2023-04-24T10:53:38;6.95;;;4.60;;
14732;SDS011;7457;50.960;6.830;2023-04-24T10:56:04;6.97;;;4.38;;
14732;SDS011;7457;50.960;6.830;2023-04-24T11:01:06;7.60;;;4.20;;
14732;SDS011;7457;50.960;6.830;2023-04-24T11:03:33;5.78;;;4.00;;
14732;SDS011;7457;50.960;6.830;2023-04-24T11:06:03;5.32;;;3.90;;
14732;SDS011;7457;50.960;6.830;2023-04-24T11:08:37;8.88;;;3.85;;
14732;SDS011;7457;50.960;6.830;2023-04-24T11:11:10;5.75;;;4.18;;
14732;SDS011;7457;50.960;6.830;2023-04-24T11:19:08;10.00;;;4.13;;
14732;SDS011;7457;50.960;6.830;2023-04-24T11:26:54;7.80;;;4.40;;
14732;SDS011;7457;50.960;6.830;2023-04-24T11:29:38;9.80;;;4.50;;
14732;SDS011;7457;50.960;6.830;2023-04-24T11:32:22;7.28;;;4.57;;
14732;SDS011;7457;50.960;6.830;2023-04-24T11:34:52;8.45;;;5.18;;
14732;SDS011;7457;50.960;6.830;2023-04-24T11:37:19;7.60;;;4.68;;
14732;SDS011;7457;50.960;6.830;2023-04-24T11:39:46;13.88;;;5.70;;
14732;SDS011;7457;50.960;6.830;2023-04-24T11:42:15;9.65;;;5.28;;
14732;SDS011;7457;50.960;6.830;2023-04-24T11:44:41;9.25;;;5.72;;
14732;SDS011;7457;50.960;6.830;2023-04-24T11:47:07;9.63;;;5.82;;
14732;SDS011;7457;50.960;6.830;2023-04-24T11:49:33;15.40;;;7.05;;
14732;SDS011;7457;50.960;6.830;2023-04-24T11:52:01;7.68;;;5.00;;
14732;SDS011;7457;50.960;6.830;2023-04-24T11:54:27;7.95;;;5.20;;
14732;SDS011;7457;50.960;6.830;2023-04-24T11:56:53;8.35;;;4.82;;
14732;SDS011;7457;50.960;6.830;2023-04-24T11:59:21;6.32;;;4.20;;
14732;SDS011;7457;50.960;6.830;2023-04-24T12:01:46;12.38;;;5.15;;
14732;SDS011;7457;50.960;6.830;2023-04-24T12:04:13;7.57;;;4.47;;
14732;SDS011;7457;50.960;6.830;2023-04-24T12:06:58;7.85;;;4.00;;
14732;SDS011;7457;50.960;6.830;2023-04-24T12:09:25;7.00;;;4.80;;
14732;SDS011;7457;50.960;6.830;2023-04-24T12:11:54;7.65;;;4.32;;
14732;SDS011;7457;50.960;6.830;2023-04-24T12:14:22;9.55;;;5.32;;
14732;SDS011;7457;50.960;6.830;2023-04-24T12:16:48;6.20;;;4.70;;
14732;SDS011;7457;50.960;6.830;2023-04-24T12:19:21;9.00;;;4.95;;
14732;SDS011;7457;50.960;6.830;2023-04-24T12:22:04;7.68;;;5.35;;
14732;SDS011;7457;50.960;6.830;2023-04-24T12:24:31;11.77;;;4.85;;
14732;SDS011;7457;50.960;6.830;2023-04-24T12:26:57;10.25;;;5.15;;
14732;SDS011;7457;50.960;6.830;2023-04-24T12:29:23;8.18;;;5.30;;
14732;SDS011;7457;50.960;6.830;2023-04-24T12:31:50;11.10;;;5.20;;
14732;SDS011;7457;50.960;6.830;2023-04-24T12:34:20;7.25;;;4.63;;
14732;SDS011;7457;50.960;6.830;2023-04-24T12:36:47;10.95;;;4.88;;
14732;SDS011;7457;50.960;6.830;2023-04-24T12:39:19;7.15;;;4.30;;
14732;SDS011;7457;50.960;6.830;2023-04-24T12:41:57;9.70;;;5.13;;
14732;SDS011;7457;50.960;6.830;2023-04-24T12:44:33;10.27;;;4.80;;
14732;SDS011;7457;50.960;6.830;2023-04-24T12:46:59;9.32;;;4.93;;
14732;SDS011;7457;50.960;6.830;2023-04-24T12:49:26;12.43;;;5.13;;
14732;SDS011;7457;50.960;6.830;2023-04-24T12:51:52;8.48;;;5.20;;
14732;SDS011;7457;50.960;6.830;2023-04-24T12:54:19;10.15;;;4.75;;
14732;SDS011;7457;50.960;6.830;2023-04-24T12:56:44;11.70;;;4.95;;
14732;SDS011;7457;50.960;6.830;2023-04-24T12:59:10;13.65;;;4.80;;
14732;SDS011;7457;50.960;6.830;2023-04-24T13:01:36;9.85;;;4.45;;
14732;SDS011;7457;50.960;6.830;2023-04-24T13:04:01;9.32;;;4.88;;
14732;SDS011;7457;50.960;6.830;2023-04-24T13:06:27;8.40;;;4.45;;
14732;SDS011;7457;50.960;6.830;2023-04-24T13:08:53;9.50;;;5.20;;
14732;SDS011;7457;50.960;6.830;2023-04-24T13:11:20;8.80;;;4.25;;
14732;SDS011;7457;50.960;6.830;2023-04-24T13:13:46;9.30;;;5.13;;
14732;SDS011;7457;50.960;6.830;2023-04-24T13:16:12;7.97;;;5.20;;
14732;SDS011;7457;50.960;6.830;2023-04-24T13:18:38;7.88;;;5.15;;
14732;SDS011;7457;50.960;6.830;2023-04-24T13:21:04;8.60;;;4.97;;
14732;SDS011;7457;50.960;6.830;2023-04-24T13:23:29;6.43;;;4.57;;
14732;SDS011;7457;50.960;6.830;2023-04-24T13:25:55;9.30;;;4.68;;
14732;SDS011;7457;50.960;6.830;2023-04-24T13:28:23;4.72;;;4.20;;
14732;SDS011;7457;50.960;6.830;2023-04-24T13:30:50;7.88;;;4.63;;
14732;SDS011;7457;50.960;6.830;2023-04-24T13:33:16;8.57;;;4.38;;
14732;SDS011;7457;50.960;6.830;2023-04-24T13:35:41;8.13;;;4.72;;
14732;SDS011;7457;50.960;6.830;2023-04-24T13:38:07;10.20;;;4.47;;
14732;SDS011;7457;50.960;6.830;2023-04-24T13:40:33;7.60;;;4.57;;
14732;SDS011;7457;50.960;6.830;2023-04-24T13:42:58;9.65;;;4.57;;
14732;SDS011;7457;50.960;6.830;2023-04-24T13:45:25;10.57;;;4.78;;
14732;SDS011;7457;50.960;6.830;2023-04-24T13:47:51;7.43;;;4.45;;
14732;SDS011;7457;50.960;6.830;2023-04-24T13:50:18;9.93;;;4.90;;
14732;SDS011;7457;50.960;6.830;2023-04-24T13:52:45;11.20;;;5.07;;
14732;SDS011;7457;50.960;6.830;2023-04-24T13:55:10;9.25;;;4.82;;
14732;SDS011;7457;50.960;6.830;2023-04-24T13:57:36;7.28;;;4.70;;
14732;SDS011;7457;50.960;6.830;2023-04-24T14:00:02;11.13;;;4.50;;
14732;SDS011;7457;50.960;6.830;2023-04-24T14:02:29;6.60;;;4.53;;
14732;SDS011;7457;50.960;6.830;2023-04-24T14:04:54;6.88;;;4.03;;
14732;SDS011;7457;50.960;6.830;2023-04-24T14:07:20;7.68;;;4.38;;
14732;SDS011;7457;50.960;6.830;2023-04-24T14:09:46;5.97;;;4.32;;
14732;SDS011;7457;50.960;6.830;2023-04-24T14:12:12;8.57;;;4.32;;
14732;SDS011;7457;50.960;6.830;2023-04-24T14:14:38;8.00;;;4.85;;
14732;SDS011;7457;50.960;6.830;2023-04-24T14:17:04;6.72;;;4.65;;
14732;SDS011;7457;50.960;6.830;2023-04-24T14:19:30;7.10;;;3.92;;
14732;SDS011;7457;50.960;6.830;2023-04-24T14:21:56;7.43;;;3.95;;
14732;SDS011;7457;50.960;6.830;2023-04-24T14:24:23;5.78;;;3.80;;
14732;SDS011;7457;50.960;6.830;2023-04-24T14:26:49;6.00;;;3.72;;
14732;SDS011;7457;50.960;6.830;2023-04-24T14:29:14;7.47;;;4.57;;
14732;SDS011;7457;50.960;6.830;2023-04-24T14:31:41;4.80;;;3.65;;
14732;SDS011;7457;50.960;6.830;2023-04-24T14:34:07;11.32;;;6.10;;
14732;SDS011;7457;50.960;6.830;2023-04-24T14:36:33;8.40;;;4.40;;
14732;SDS011;7457;50.960;6.830;2023-04-24T14:38:59;8.10;;;5.45;;
14732;SDS011;7457;50.960;6.830;2023-04-24T14:41:24;6.72;;;4.28;;
14732;SDS011;7457;50.960;6.830;2023-04-24T14:43:50;7.65;;;4.40;;
14732;SDS011;7457;50.960;6.830;2023-04-24T14:46:16;6.78;;;4.60;;
14732;SDS011;7457;50.960;6.830;2023-04-24T14:48:41;11.38;;;4.40;;
14732;SDS011;7457;50.960;6.830;2023-04-24T14:51:07;7.57;;;4.25;;
14732;SDS011;7457;50.960;6.830;2023-04-24T14:53:32;7.00;;;4.05;;
14732;SDS011;7457;50.960;6.830;2023-04-24T14:55:58;6.65;;;4.07;;
14732;SDS011;7457;50.960;6.830;2023-04-24T14:58:24;7.10;;;3.58;;
14732;SDS011;7457;50.960;6.830;2023-04-24T15:00:50;6.55;;;4.55;;
14732;SDS011;7457;50.960;6.830;2023-04-24T15:03:17;7.75;;;3.88;;
14732;SDS011;7457;50.960;6.830;2023-04-24T15:05:43;5.07;;;3.47;;
14732;SDS011;7457;50.960;6.830;2023-04-24T15:08:09;8.13;;;4.10;;
14732;SDS011;7457;50.960;6.830;2023-04-24T15:10:35;7.72;;;4.53;;
14732;SDS011;7457;50.960;6.830;2023-04-24T15:13:01;10.70;;;4.32;;